sensor_id;sensor_type;location;lat;lon;timestamp;P1;durP1;ratioP1;P2;durP2;ratioP2
13204;SDS011;6667;52.634;9.226;2023-03-03T00:01:05;46.77;;;21.17;;
13204;SDS011;6667;52.634;9.226;2023-03-03T00:03:32;42.23;;;19.77;;
13204;SDS011;6667;52.634;9.226;2023-03-03T00:05:59;47.60;;;21.10;;
13204;SDS011;6667;52.634;9.226;2023-03-03T00:08:27;44.67;;;20.57;;
13204;SDS011;6667;52.634;9.226;2023-03-03T00:10:54;45.70;;;19.90;;
13204;SDS011;6667;52.634;9.226;2023-03-03T00:13:23;43.90;;;21.00;;
13204;SDS011;6667;52.634;9.226;2023-03-03T00:15:51;49.43;;;21.33;;
13204;SDS011;6667;52.634;9.226;2023-03-03T00:18:24;44.23;;;19.63;;
13204;SDS011;6667;52.634;9.226;2023-03-03T00:20:55;41.63;;;19.03;;
13204;SDS011;6667;52.634;9.226;2023-03-03T00:23:29;45.30;;;21.03;;
13204;SDS011;6667;52.634;9.226;2023-03-03T00:26:00;44.27;;;20.37;;
13204;SDS011;6667;52.634;9.226;2023-03-03T00:28:29;41.07;;;19.53;;
13204;SDS011;6667;52.634;9.226;2023-03-03T00:30:58;43.03;;;18.73;;
13204;SDS011;6667;52.634;9.226;2023-03-03T00:33:29;40.60;;;19.03;;
13204;SDS011;6667;52.634;9.226;2023-03-03T00:36:06;43.70;;;20.60;;
13204;SDS011;6667;52.634;9.226;2023-03-03T00:38:47;42.03;;;19.23;;
13204;SDS011;6667;52.634;9.226;2023-03-03T00:41:15;38.70;;;18.17;;
13204;SDS011;6667;52.634;9.226;2023-03-03T00:43:46;40.43;;;19.47;;
13204;SDS011;6667;52.634;9.226;2023-03-03T00:46:14;37.13;;;17.07;;
13204;SDS011;6667;52.634;9.226;2023-03-03T00:48:43;38.03;;;17.70;;
13204;SDS011;6667;52.634;9.226;2023-03-03T00:51:16;38.03;;;17.83;;
13204;SDS011;6667;52.634;9.226;2023-03-03T00:53:50;36.57;;;16.70;;
13204;SDS011;6667;52.634;9.226;2023-03-03T00:56:18;39.30;;;17.20;;
13204;SDS011;6667;52.634;9.226;2023-03-03T00:58:46;35.97;;;17.10;;
13204;SDS011;6667;52.634;9.226;2023-03-03T01:01:13;32.77;;;15.67;;
13204;SDS011;6667;52.634;9.226;2023-03-03T01:03:40;34.53;;;15.30;;
13204;SDS011;6667;52.634;9.226;2023-03-03T01:06:07;29.40;;;14.13;;
13204;SDS011;6667;52.634;9.226;2023-03-03T01:08:33;31.20;;;14.83;;
13204;SDS011;6667;52.634;9.226;2023-03-03T01:11:02;35.57;;;16.97;;
13204;SDS011;6667;52.634;9.226;2023-03-03T01:13:32;35.90;;;16.60;;
13204;SDS011;6667;52.634;9.226;2023-03-03T01:16:02;33.07;;;15.67;;
13204;SDS011;6667;52.634;9.226;2023-03-03T01:18:29;29.80;;;14.97;;
13204;SDS011;6667;52.634;9.226;2023-03-03T01:20:56;34.77;;;15.10;;
13204;SDS011;6667;52.634;9.226;2023-03-03T01:23:23;34.53;;;16.40;;
13204;SDS011;6667;52.634;9.226;2023-03-03T01:25:49;31.43;;;15.00;;
13204;SDS011;6667;52.634;9.226;2023-03-03T01:28:16;28.60;;;14.60;;
13204;SDS011;6667;52.634;9.226;2023-03-03T01:30:42;38.07;;;16.73;;
13204;SDS011;6667;52.634;9.226;2023-03-03T01:33:10;34.73;;;16.30;;
13204;SDS011;6667;52.634;9.226;2023-03-03T01:35:41;34.83;;;15.23;;
13204;SDS011;6667;52.634;9.226;2023-03-03T01:38:09;32.83;;;15.70;;
13204;SDS011;6667;52.634;9.226;2023-03-03T01:40:36;35.80;;;17.27;;
13204;SDS011;6667;52.634;9.226;2023-03-03T01:43:03;39.30;;;16.90;;
13204;SDS011;6667;52.634;9.226;2023-03-03T01:45:30;38.20;;;16.70;;
13204;SDS011;6667;52.634;9.226;2023-03-03T01:48:02;37.63;;;16.20;;
13204;SDS011;6667;52.634;9.226;2023-03-03T01:50:37;35.83;;;15.90;;
13204;SDS011;6667;52.634;9.226;2023-03-03T01:53:09;43.13;;;17.83;;
13204;SDS011;6667;52.634;9.226;2023-03-03T01:55:38;38.70;;;17.40;;
13204;SDS011;6667;52.634;9.226;2023-03-03T01:58:07;37.80;;;16.23;;
13204;SDS011;6667;52.634;9.226;2023-03-03T02:00:38;35.37;;;15.67;;
13204;SDS011;6667;52.634;9.226;2023-03-03T02:03:09;35.17;;;16.33;;
13204;SDS011;6667;52.634;9.226;2023-03-03T02:05:37;37.33;;;17.37;;
13204;SDS011;6667;52.634;9.226;2023-03-03T02:08:06;34.77;;;16.07;;
13204;SDS011;6667;52.634;9.226;2023-03-03T02:10:35;34.13;;;15.93;;
13204;SDS011;6667;52.634;9.226;2023-03-03T02:13:02;34.80;;;15.67;;
13204;SDS011;6667;52.634;9.226;2023-03-03T02:15:30;36.03;;;15.50;;
13204;SDS011;6667;52.634;9.226;2023-03-03T02:18:01;33.03;;;15.87;;
13204;SDS011;6667;52.634;9.226;2023-03-03T02:20:43;32.13;;;15.73;;
13204;SDS011;6667;52.634;9.226;2023-03-03T02:23:19;36.27;;;15.63;;
13204;SDS011;6667;52.634;9.226;2023-03-03T02:25:59;36.50;;;16.20;;
13204;SDS011;6667;52.634;9.226;2023-03-03T02:28:31;32.17;;;15.43;;
13204;SDS011;6667;52.634;9.226;2023-03-03T02:31:00;33.40;;;15.30;;
13204;SDS011;6667;52.634;9.226;2023-03-03T02:33:27;32.10;;;15.40;;
13204;SDS011;6667;52.634;9.226;2023-03-03T02:35:54;30.83;;;14.90;;
13204;SDS011;6667;52.634;9.226;2023-03-03T02:38:23;31.30;;;14.10;;
13204;SDS011;6667;52.634;9.226;2023-03-03T02:40:56;34.93;;;15.60;;
13204;SDS011;6667;52.634;9.226;2023-03-03T02:43:30;33.17;;;16.50;;
13204;SDS011;6667;52.634;9.226;2023-03-03T02:46:01;37.33;;;16.17;;
13204;SDS011;6667;52.634;9.226;2023-03-03T02:48:28;30.00;;;14.10;;
13204;SDS011;6667;52.634;9.226;2023-03-03T02:50:54;30.27;;;14.27;;
13204;SDS011;6667;52.634;9.226;2023-03-03T02:53:21;29.40;;;14.60;;
13204;SDS011;6667;52.634;9.226;2023-03-03T02:55:48;33.30;;;15.67;;
13204;SDS011;6667;52.634;9.226;2023-03-03T02:58:16;35.87;;;16.23;;
13204;SDS011;6667;52.634;9.226;2023-03-03T03:00:42;38.33;;;17.27;;
13204;SDS011;6667;52.634;9.226;2023-03-03T03:03:11;34.37;;;16.07;;
13204;SDS011;6667;52.634;9.226;2023-03-03T03:05:38;42.33;;;15.57;;
13204;SDS011;6667;52.634;9.226;2023-03-03T03:08:04;39.83;;;16.50;;
13204;SDS011;6667;52.634;9.226;2023-03-03T03:10:31;35.00;;;16.40;;
13204;SDS011;6667;52.634;9.226;2023-03-03T03:12:58;38.07;;;15.70;;
13204;SDS011;6667;52.634;9.226;2023-03-03T03:15:26;39.03;;;16.70;;
13204;SDS011;6667;52.634;9.226;2023-03-03T03:17:52;38.17;;;17.80;;
13204;SDS011;6667;52.634;9.226;2023-03-03T03:20:19;37.60;;;16.43;;
13204;SDS011;6667;52.634;9.226;2023-03-03T03:22:46;35.67;;;16.23;;
13204;SDS011;6667;52.634;9.226;2023-03-03T03:25:13;36.80;;;16.77;;
13204;SDS011;6667;52.634;9.226;2023-03-03T03:27:39;38.03;;;17.47;;
13204;SDS011;6667;52.634;9.226;2023-03-03T03:30:06;35.70;;;17.40;;
13204;SDS011;6667;52.634;9.226;2023-03-03T03:32:35;32.17;;;16.20;;
13204;SDS011;6667;52.634;9.226;2023-03-03T03:35:02;32.30;;;16.07;;
13204;SDS011;6667;52.634;9.226;2023-03-03T03:37:29;37.13;;;16.33;;
13204;SDS011;6667;52.634;9.226;2023-03-03T03:39:55;36.37;;;17.33;;
13204;SDS011;6667;52.634;9.226;2023-03-03T03:42:22;41.23;;;18.23;;
13204;SDS011;6667;52.634;9.226;2023-03-03T03:44:49;33.70;;;17.07;;
13204;SDS011;6667;52.634;9.226;2023-03-03T03:47:15;34.47;;;16.47;;
13204;SDS011;6667;52.634;9.226;2023-03-03T03:49:43;40.13;;;17.03;;
13204;SDS011;6667;52.634;9.226;2023-03-03T03:52:10;35.23;;;16.27;;
13204;SDS011;6667;52.634;9.226;2023-03-03T03:54:36;43.10;;;19.33;;
13204;SDS011;6667;52.634;9.226;2023-03-03T03:57:03;41.10;;;18.10;;
13204;SDS011;6667;52.634;9.226;2023-03-03T03:59:30;38.30;;;18.40;;
13204;SDS011;6667;52.634;9.226;2023-03-03T04:01:57;41.43;;;19.07;;
13204;SDS011;6667;52.634;9.226;2023-03-03T04:04:23;41.97;;;18.17;;
13204;SDS011;6667;52.634;9.226;2023-03-03T04:06:51;37.50;;;18.60;;
13204;SDS011;6667;52.634;9.226;2023-03-03T04:09:18;43.83;;;20.20;;
13204;SDS011;6667;52.634;9.226;2023-03-03T04:11:44;44.30;;;18.97;;
13204;SDS011;6667;52.634;9.226;2023-03-03T04:14:11;46.10;;;19.37;;
13204;SDS011;6667;52.634;9.226;2023-03-03T04:16:38;43.07;;;19.63;;
13204;SDS011;6667;52.634;9.226;2023-03-03T04:19:04;44.40;;;19.10;;
13204;SDS011;6667;52.634;9.226;2023-03-03T04:21:31;39.63;;;18.80;;
13204;SDS011;6667;52.634;9.226;2023-03-03T04:23:59;38.47;;;17.37;;
13204;SDS011;6667;52.634;9.226;2023-03-03T04:26:25;41.43;;;18.47;;
13204;SDS011;6667;52.634;9.226;2023-03-03T04:28:52;42.53;;;19.83;;
13204;SDS011;6667;52.634;9.226;2023-03-03T04:31:18;46.23;;;19.77;;
13204;SDS011;6667;52.634;9.226;2023-03-03T04:33:45;46.13;;;19.80;;
13204;SDS011;6667;52.634;9.226;2023-03-03T04:36:12;44.07;;;19.83;;
13204;SDS011;6667;52.634;9.226;2023-03-03T04:38:38;42.90;;;19.20;;
13204;SDS011;6667;52.634;9.226;2023-03-03T04:41:06;45.43;;;20.80;;
13204;SDS011;6667;52.634;9.226;2023-03-03T04:43:33;41.43;;;19.20;;
13204;SDS011;6667;52.634;9.226;2023-03-03T04:45:59;48.73;;;20.57;;
13204;SDS011;6667;52.634;9.226;2023-03-03T04:48:26;43.43;;;21.37;;
13204;SDS011;6667;52.634;9.226;2023-03-03T04:50:53;46.13;;;21.67;;
13204;SDS011;6667;52.634;9.226;2023-03-03T04:53:20;42.00;;;20.03;;
13204;SDS011;6667;52.634;9.226;2023-03-03T04:55:49;45.53;;;19.90;;
13204;SDS011;6667;52.634;9.226;2023-03-03T04:58:17;47.37;;;21.03;;
13204;SDS011;6667;52.634;9.226;2023-03-03T05:00:45;52.83;;;21.20;;
13204;SDS011;6667;52.634;9.226;2023-03-03T05:03:11;45.97;;;20.47;;
13204;SDS011;6667;52.634;9.226;2023-03-03T05:05:39;46.77;;;20.63;;
13204;SDS011;6667;52.634;9.226;2023-03-03T05:08:06;43.43;;;20.77;;
13204;SDS011;6667;52.634;9.226;2023-03-03T05:10:32;43.00;;;21.13;;
13204;SDS011;6667;52.634;9.226;2023-03-03T05:12:59;43.90;;;20.60;;
13204;SDS011;6667;52.634;9.226;2023-03-03T05:15:27;43.57;;;18.97;;
13204;SDS011;6667;52.634;9.226;2023-03-03T05:17:54;45.93;;;21.40;;
13204;SDS011;6667;52.634;9.226;2023-03-03T05:20:21;47.67;;;21.60;;
13204;SDS011;6667;52.634;9.226;2023-03-03T05:22:48;46.03;;;21.23;;
13204;SDS011;6667;52.634;9.226;2023-03-03T05:25:15;46.63;;;20.70;;
13204;SDS011;6667;52.634;9.226;2023-03-03T05:27:42;48.63;;;22.30;;
13204;SDS011;6667;52.634;9.226;2023-03-03T05:30:09;41.53;;;20.17;;
13204;SDS011;6667;52.634;9.226;2023-03-03T05:32:38;45.93;;;21.07;;
13204;SDS011;6667;52.634;9.226;2023-03-03T05:35:05;46.53;;;21.00;;
13204;SDS011;6667;52.634;9.226;2023-03-03T05:37:32;43.80;;;20.80;;
13204;SDS011;6667;52.634;9.226;2023-03-03T05:39:59;40.97;;;17.83;;
13204;SDS011;6667;52.634;9.226;2023-03-03T05:42:25;43.23;;;19.33;;
13204;SDS011;6667;52.634;9.226;2023-03-03T05:44:52;37.90;;;19.17;;
13204;SDS011;6667;52.634;9.226;2023-03-03T05:47:18;48.97;;;21.40;;
13204;SDS011;6667;52.634;9.226;2023-03-03T05:49:46;43.50;;;19.77;;
13204;SDS011;6667;52.634;9.226;2023-03-03T05:52:13;45.53;;;21.03;;
13204;SDS011;6667;52.634;9.226;2023-03-03T05:54:39;52.97;;;23.00;;
13204;SDS011;6667;52.634;9.226;2023-03-03T05:57:06;48.87;;;21.47;;
13204;SDS011;6667;52.634;9.226;2023-03-03T05:59:33;44.85;;;20.20;;
13204;SDS011;6667;52.634;9.226;2023-03-03T06:01:59;47.80;;;21.60;;
13204;SDS011;6667;52.634;9.226;2023-03-03T06:04:26;44.77;;;21.27;;
13204;SDS011;6667;52.634;9.226;2023-03-03T06:06:54;41.27;;;20.83;;
13204;SDS011;6667;52.634;9.226;2023-03-03T06:09:20;45.00;;;19.80;;
13204;SDS011;6667;52.634;9.226;2023-03-03T06:11:47;36.87;;;17.37;;
13204;SDS011;6667;52.634;9.226;2023-03-03T06:14:13;33.93;;;16.17;;
13204;SDS011;6667;52.634;9.226;2023-03-03T06:16:40;35.20;;;16.93;;
13204;SDS011;6667;52.634;9.226;2023-03-03T06:19:07;36.77;;;17.03;;
13204;SDS011;6667;52.634;9.226;2023-03-03T06:21:33;41.00;;;17.97;;
13204;SDS011;6667;52.634;9.226;2023-03-03T06:24:01;36.40;;;16.23;;
13204;SDS011;6667;52.634;9.226;2023-03-03T06:26:28;33.60;;;15.70;;
13204;SDS011;6667;52.634;9.226;2023-03-03T06:28:56;35.83;;;14.77;;
13204;SDS011;6667;52.634;9.226;2023-03-03T06:31:23;32.40;;;15.33;;
13204;SDS011;6667;52.634;9.226;2023-03-03T06:33:49;34.57;;;16.57;;
13204;SDS011;6667;52.634;9.226;2023-03-03T06:36:16;33.27;;;14.77;;
13204;SDS011;6667;52.634;9.226;2023-03-03T06:38:43;35.33;;;16.43;;
13204;SDS011;6667;52.634;9.226;2023-03-03T06:41:11;32.23;;;14.57;;
13204;SDS011;6667;52.634;9.226;2023-03-03T06:43:38;35.03;;;15.07;;
13204;SDS011;6667;52.634;9.226;2023-03-03T06:46:05;40.20;;;18.53;;
13204;SDS011;6667;52.634;9.226;2023-03-03T06:48:31;35.57;;;16.50;;
13204;SDS011;6667;52.634;9.226;2023-03-03T06:50:59;36.60;;;15.13;;
13204;SDS011;6667;52.634;9.226;2023-03-03T06:53:27;27.97;;;14.57;;
13204;SDS011;6667;52.634;9.226;2023-03-03T06:55:58;34.53;;;17.23;;
13204;SDS011;6667;52.634;9.226;2023-03-03T06:58:27;34.70;;;15.53;;
13204;SDS011;6667;52.634;9.226;2023-03-03T07:00:56;31.87;;;15.67;;
13204;SDS011;6667;52.634;9.226;2023-03-03T07:03:24;29.67;;;14.00;;
13204;SDS011;6667;52.634;9.226;2023-03-03T07:05:53;34.63;;;16.40;;
13204;SDS011;6667;52.634;9.226;2023-03-03T07:08:21;33.23;;;14.50;;
13204;SDS011;6667;52.634;9.226;2023-03-03T07:10:49;29.00;;;14.00;;
13204;SDS011;6667;52.634;9.226;2023-03-03T07:13:18;29.23;;;15.30;;
13204;SDS011;6667;52.634;9.226;2023-03-03T07:15:47;34.63;;;16.50;;
13204;SDS011;6667;52.634;9.226;2023-03-03T07:18:25;29.13;;;13.93;;
13204;SDS011;6667;52.634;9.226;2023-03-03T07:21:01;33.27;;;14.43;;
13204;SDS011;6667;52.634;9.226;2023-03-03T07:23:38;30.10;;;14.80;;
13204;SDS011;6667;52.634;9.226;2023-03-03T07:26:06;33.07;;;14.60;;
13204;SDS011;6667;52.634;9.226;2023-03-03T07:28:35;29.33;;;14.40;;
13204;SDS011;6667;52.634;9.226;2023-03-03T07:31:14;26.60;;;12.33;;
13204;SDS011;6667;52.634;9.226;2023-03-03T07:33:50;29.23;;;14.33;;
13204;SDS011;6667;52.634;9.226;2023-03-03T07:36:21;27.80;;;13.07;;
13204;SDS011;6667;52.634;9.226;2023-03-03T07:38:52;28.60;;;13.83;;
13204;SDS011;6667;52.634;9.226;2023-03-03T07:41:22;28.43;;;12.47;;
13204;SDS011;6667;52.634;9.226;2023-03-03T07:43:49;28.63;;;13.57;;
13204;SDS011;6667;52.634;9.226;2023-03-03T07:46:21;29.53;;;13.33;;
13204;SDS011;6667;52.634;9.226;2023-03-03T07:48:51;31.27;;;14.03;;
13204;SDS011;6667;52.634;9.226;2023-03-03T07:51:20;29.93;;;14.23;;
13204;SDS011;6667;52.634;9.226;2023-03-03T07:53:49;28.53;;;14.30;;
13204;SDS011;6667;52.634;9.226;2023-03-03T07:56:20;29.67;;;14.10;;
13204;SDS011;6667;52.634;9.226;2023-03-03T07:58:55;29.70;;;13.27;;
13204;SDS011;6667;52.634;9.226;2023-03-03T08:01:34;29.17;;;12.83;;
13204;SDS011;6667;52.634;9.226;2023-03-03T08:04:08;28.10;;;12.33;;
13204;SDS011;6667;52.634;9.226;2023-03-03T08:06:45;28.60;;;13.93;;
13204;SDS011;6667;52.634;9.226;2023-03-03T08:12:11;27.00;;;14.30;;
13204;SDS011;6667;52.634;9.226;2023-03-03T08:14:44;36.00;;;13.57;;
13204;SDS011;6667;52.634;9.226;2023-03-03T08:17:16;24.20;;;12.40;;
13204;SDS011;6667;52.634;9.226;2023-03-03T08:19:46;25.23;;;12.63;;
13204;SDS011;6667;52.634;9.226;2023-03-03T08:22:15;26.00;;;13.20;;
13204;SDS011;6667;52.634;9.226;2023-03-03T08:24:43;25.13;;;12.70;;
13204;SDS011;6667;52.634;9.226;2023-03-03T08:27:10;24.03;;;12.20;;
13204;SDS011;6667;52.634;9.226;2023-03-03T08:29:36;24.53;;;13.53;;
13204;SDS011;6667;52.634;9.226;2023-03-03T08:32:04;23.47;;;12.27;;
13204;SDS011;6667;52.634;9.226;2023-03-03T08:34:32;27.97;;;13.47;;
13204;SDS011;6667;52.634;9.226;2023-03-03T08:36:58;24.03;;;12.57;;
13204;SDS011;6667;52.634;9.226;2023-03-03T08:39:25;27.37;;;13.07;;
13204;SDS011;6667;52.634;9.226;2023-03-03T08:41:52;27.47;;;12.70;;
13204;SDS011;6667;52.634;9.226;2023-03-03T08:44:18;28.03;;;12.93;;
13204;SDS011;6667;52.634;9.226;2023-03-03T08:46:45;24.13;;;13.20;;
13204;SDS011;6667;52.634;9.226;2023-03-03T08:49:11;24.13;;;13.10;;
13204;SDS011;6667;52.634;9.226;2023-03-03T08:51:39;24.30;;;12.73;;
13204;SDS011;6667;52.634;9.226;2023-03-03T08:54:06;26.97;;;12.90;;
13204;SDS011;6667;52.634;9.226;2023-03-03T08:56:33;28.33;;;13.03;;
13204;SDS011;6667;52.634;9.226;2023-03-03T08:58:59;30.93;;;15.20;;
13204;SDS011;6667;52.634;9.226;2023-03-03T09:01:26;29.70;;;14.20;;
13204;SDS011;6667;52.634;9.226;2023-03-03T09:03:53;23.23;;;12.17;;
13204;SDS011;6667;52.634;9.226;2023-03-03T09:06:19;26.23;;;12.47;;
13204;SDS011;6667;52.634;9.226;2023-03-03T09:08:47;26.43;;;12.60;;
13204;SDS011;6667;52.634;9.226;2023-03-03T09:11:14;28.37;;;13.77;;
13204;SDS011;6667;52.634;9.226;2023-03-03T09:13:47;34.37;;;15.50;;
13204;SDS011;6667;52.634;9.226;2023-03-03T09:16:17;26.83;;;14.27;;
13204;SDS011;6667;52.634;9.226;2023-03-03T09:18:45;29.93;;;14.03;;
13204;SDS011;6667;52.634;9.226;2023-03-03T09:21:16;29.43;;;13.43;;
13204;SDS011;6667;52.634;9.226;2023-03-03T09:23:48;24.57;;;13.20;;
13204;SDS011;6667;52.634;9.226;2023-03-03T09:26:25;30.70;;;14.20;;
13204;SDS011;6667;52.634;9.226;2023-03-03T09:28:55;33.37;;;13.97;;
13204;SDS011;6667;52.634;9.226;2023-03-03T09:31:26;32.20;;;14.57;;
13204;SDS011;6667;52.634;9.226;2023-03-03T09:34:00;31.10;;;14.63;;
13204;SDS011;6667;52.634;9.226;2023-03-03T09:36:29;34.30;;;15.57;;
13204;SDS011;6667;52.634;9.226;2023-03-03T09:39:09;35.57;;;17.03;;
13204;SDS011;6667;52.634;9.226;2023-03-03T09:41:48;33.20;;;16.37;;
13204;SDS011;6667;52.634;9.226;2023-03-03T09:44:36;28.43;;;13.33;;
13204;SDS011;6667;52.634;9.226;2023-03-03T09:47:30;36.27;;;16.13;;
13204;SDS011;6667;52.634;9.226;2023-03-03T09:50:06;37.97;;;17.10;;
13204;SDS011;6667;52.634;9.226;2023-03-03T09:52:45;37.33;;;15.70;;
13204;SDS011;6667;52.634;9.226;2023-03-03T09:55:29;37.27;;;16.23;;
13204;SDS011;6667;52.634;9.226;2023-03-03T09:58:18;39.27;;;18.43;;
13204;SDS011;6667;52.634;9.226;2023-03-03T10:01:05;47.63;;;19.90;;
13204;SDS011;6667;52.634;9.226;2023-03-03T10:03:54;43.67;;;18.33;;
13204;SDS011;6667;52.634;9.226;2023-03-03T10:06:42;49.70;;;21.40;;
13204;SDS011;6667;52.634;9.226;2023-03-03T10:09:27;49.87;;;20.27;;
13204;SDS011;6667;52.634;9.226;2023-03-03T10:12:06;45.07;;;19.23;;
13204;SDS011;6667;52.634;9.226;2023-03-03T10:14:48;40.43;;;17.80;;
13204;SDS011;6667;52.634;9.226;2023-03-03T10:17:51;38.87;;;16.63;;
13204;SDS011;6667;52.634;9.226;2023-03-03T10:20:23;46.73;;;18.83;;
13204;SDS011;6667;52.634;9.226;2023-03-03T10:23:00;44.17;;;17.23;;
13204;SDS011;6667;52.634;9.226;2023-03-03T10:25:45;38.50;;;15.60;;
13204;SDS011;6667;52.634;9.226;2023-03-03T10:28:22;35.73;;;16.83;;
13204;SDS011;6667;52.634;9.226;2023-03-03T10:31:13;37.30;;;16.70;;
13204;SDS011;6667;52.634;9.226;2023-03-03T10:33:48;33.83;;;15.17;;
13204;SDS011;6667;52.634;9.226;2023-03-03T10:39:20;41.67;;;16.07;;
13204;SDS011;6667;52.634;9.226;2023-03-03T10:42:04;33.00;;;15.53;;
13204;SDS011;6667;52.634;9.226;2023-03-03T10:44:44;35.07;;;14.87;;
13204;SDS011;6667;52.634;9.226;2023-03-03T10:50:16;34.33;;;15.57;;
13204;SDS011;6667;52.634;9.226;2023-03-03T10:52:53;35.87;;;14.37;;
13204;SDS011;6667;52.634;9.226;2023-03-03T10:55:31;29.17;;;14.73;;
13204;SDS011;6667;52.634;9.226;2023-03-03T10:58:15;37.97;;;15.87;;
13204;SDS011;6667;52.634;9.226;2023-03-03T11:01:05;28.73;;;14.70;;
13204;SDS011;6667;52.634;9.226;2023-03-03T11:06:33;35.27;;;15.23;;
13204;SDS011;6667;52.634;9.226;2023-03-03T11:09:09;40.90;;;18.10;;
13204;SDS011;6667;52.634;9.226;2023-03-03T11:11:50;34.93;;;15.53;;
13204;SDS011;6667;52.634;9.226;2023-03-03T11:14:21;34.17;;;15.43;;
13204;SDS011;6667;52.634;9.226;2023-03-03T11:16:57;32.50;;;13.87;;
13204;SDS011;6667;52.634;9.226;2023-03-03T11:19:38;30.83;;;16.10;;
13204;SDS011;6667;52.634;9.226;2023-03-03T11:22:18;33.43;;;15.33;;
13204;SDS011;6667;52.634;9.226;2023-03-03T11:25:00;32.27;;;13.97;;
13204;SDS011;6667;52.634;9.226;2023-03-03T11:27:38;33.57;;;15.53;;
13204;SDS011;6667;52.634;9.226;2023-03-03T11:30:40;37.63;;;16.30;;
13204;SDS011;6667;52.634;9.226;2023-03-03T11:33:29;38.13;;;15.30;;
13204;SDS011;6667;52.634;9.226;2023-03-03T11:36:04;37.00;;;17.07;;
13204;SDS011;6667;52.634;9.226;2023-03-03T11:38:42;42.20;;;16.67;;
13204;SDS011;6667;52.634;9.226;2023-03-03T11:41:16;29.43;;;15.53;;
13204;SDS011;6667;52.634;9.226;2023-03-03T11:43:51;33.37;;;15.10;;
13204;SDS011;6667;52.634;9.226;2023-03-03T11:46:23;33.73;;;16.90;;
13204;SDS011;6667;52.634;9.226;2023-03-03T11:48:57;37.03;;;16.13;;
13204;SDS011;6667;52.634;9.226;2023-03-03T11:51:31;37.73;;;16.50;;
13204;SDS011;6667;52.634;9.226;2023-03-03T11:54:07;37.33;;;17.40;;
13204;SDS011;6667;52.634;9.226;2023-03-03T11:56:40;41.57;;;17.67;;
13204;SDS011;6667;52.634;9.226;2023-03-03T11:59:29;41.13;;;19.10;;
13204;SDS011;6667;52.634;9.226;2023-03-03T12:02:08;44.50;;;18.73;;
13204;SDS011;6667;52.634;9.226;2023-03-03T12:04:47;39.83;;;17.30;;
13204;SDS011;6667;52.634;9.226;2023-03-03T12:07:21;41.67;;;19.87;;
13204;SDS011;6667;52.634;9.226;2023-03-03T12:09:57;42.40;;;20.90;;
13204;SDS011;6667;52.634;9.226;2023-03-03T12:12:40;41.93;;;19.40;;
13204;SDS011;6667;52.634;9.226;2023-03-03T12:15:13;38.30;;;18.83;;
13204;SDS011;6667;52.634;9.226;2023-03-03T12:17:51;34.90;;;17.77;;
13204;SDS011;6667;52.634;9.226;2023-03-03T12:20:30;36.40;;;17.97;;
13204;SDS011;6667;52.634;9.226;2023-03-03T12:23:07;35.73;;;16.33;;
13204;SDS011;6667;52.634;9.226;2023-03-03T12:25:42;35.13;;;16.40;;
13204;SDS011;6667;52.634;9.226;2023-03-03T12:28:14;29.93;;;15.93;;
13204;SDS011;6667;52.634;9.226;2023-03-03T12:30:59;32.07;;;16.20;;
13204;SDS011;6667;52.634;9.226;2023-03-03T12:33:37;37.40;;;16.97;;
13204;SDS011;6667;52.634;9.226;2023-03-03T12:36:18;33.10;;;17.57;;
13204;SDS011;6667;52.634;9.226;2023-03-03T12:38:59;35.23;;;17.50;;
13204;SDS011;6667;52.634;9.226;2023-03-03T12:41:33;31.93;;;16.77;;
13204;SDS011;6667;52.634;9.226;2023-03-03T12:44:05;34.10;;;17.13;;
13204;SDS011;6667;52.634;9.226;2023-03-03T12:46:42;33.97;;;17.07;;
13204;SDS011;6667;52.634;9.226;2023-03-03T12:49:10;29.40;;;15.87;;
13204;SDS011;6667;52.634;9.226;2023-03-03T12:51:43;33.17;;;17.23;;
13204;SDS011;6667;52.634;9.226;2023-03-03T12:54:31;32.40;;;15.73;;
13204;SDS011;6667;52.634;9.226;2023-03-03T12:57:08;32.40;;;15.57;;
13204;SDS011;6667;52.634;9.226;2023-03-03T12:59:49;34.07;;;17.53;;
13204;SDS011;6667;52.634;9.226;2023-03-03T13:02:31;31.10;;;16.00;;
13204;SDS011;6667;52.634;9.226;2023-03-03T13:05:09;25.73;;;15.47;;
13204;SDS011;6667;52.634;9.226;2023-03-03T13:07:49;29.30;;;15.47;;
13204;SDS011;6667;52.634;9.226;2023-03-03T13:10:23;27.73;;;15.73;;
13204;SDS011;6667;52.634;9.226;2023-03-03T13:12:57;26.63;;;13.80;;
13204;SDS011;6667;52.634;9.226;2023-03-03T13:15:29;19.67;;;11.83;;
13204;SDS011;6667;52.634;9.226;2023-03-03T13:18:14;25.47;;;13.23;;
13204;SDS011;6667;52.634;9.226;2023-03-03T13:20:50;24.80;;;14.17;;
13204;SDS011;6667;52.634;9.226;2023-03-03T13:23:27;21.97;;;13.63;;
13204;SDS011;6667;52.634;9.226;2023-03-03T13:26:05;20.03;;;11.80;;
13204;SDS011;6667;52.634;9.226;2023-03-03T13:28:35;19.10;;;11.57;;
13204;SDS011;6667;52.634;9.226;2023-03-03T13:31:07;19.87;;;11.77;;
13204;SDS011;6667;52.634;9.226;2023-03-03T13:33:40;20.03;;;11.70;;
13204;SDS011;6667;52.634;9.226;2023-03-03T13:36:14;22.67;;;11.37;;
13204;SDS011;6667;52.634;9.226;2023-03-03T13:38:46;24.83;;;12.43;;
13204;SDS011;6667;52.634;9.226;2023-03-03T13:41:16;24.23;;;13.63;;
13204;SDS011;6667;52.634;9.226;2023-03-03T13:43:49;21.87;;;12.27;;
13204;SDS011;6667;52.634;9.226;2023-03-03T13:46:21;21.33;;;13.17;;
13204;SDS011;6667;52.634;9.226;2023-03-03T13:49:01;26.57;;;14.13;;
13204;SDS011;6667;52.634;9.226;2023-03-03T13:51:46;22.97;;;13.00;;
13204;SDS011;6667;52.634;9.226;2023-03-03T13:54:25;23.87;;;13.73;;
13204;SDS011;6667;52.634;9.226;2023-03-03T13:57:08;24.20;;;13.70;;
13204;SDS011;6667;52.634;9.226;2023-03-03T13:59:43;23.27;;;11.10;;
13204;SDS011;6667;52.634;9.226;2023-03-03T14:02:24;21.77;;;13.07;;
13204;SDS011;6667;52.634;9.226;2023-03-03T14:05:10;21.13;;;11.87;;
13204;SDS011;6667;52.634;9.226;2023-03-03T14:07:41;20.60;;;12.37;;
13204;SDS011;6667;52.634;9.226;2023-03-03T14:10:16;22.27;;;12.30;;
13204;SDS011;6667;52.634;9.226;2023-03-03T14:12:50;26.40;;;13.13;;
13204;SDS011;6667;52.634;9.226;2023-03-03T14:15:25;20.50;;;11.87;;
13204;SDS011;6667;52.634;9.226;2023-03-03T14:18:00;17.13;;;9.97;;
13204;SDS011;6667;52.634;9.226;2023-03-03T14:20:35;16.80;;;10.50;;
13204;SDS011;6667;52.634;9.226;2023-03-03T14:23:08;19.13;;;10.40;;
13204;SDS011;6667;52.634;9.226;2023-03-03T14:25:55;18.23;;;11.23;;
13204;SDS011;6667;52.634;9.226;2023-03-03T14:28:23;18.07;;;9.67;;
13204;SDS011;6667;52.634;9.226;2023-03-03T14:30:52;17.27;;;10.90;;
13204;SDS011;6667;52.634;9.226;2023-03-03T14:33:28;18.40;;;10.57;;
13204;SDS011;6667;52.634;9.226;2023-03-03T14:36:00;20.90;;;9.73;;
13204;SDS011;6667;52.634;9.226;2023-03-03T14:38:36;15.80;;;9.87;;
13204;SDS011;6667;52.634;9.226;2023-03-03T14:41:12;16.77;;;9.10;;
13204;SDS011;6667;52.634;9.226;2023-03-03T14:43:43;16.30;;;9.13;;
13204;SDS011;6667;52.634;9.226;2023-03-03T14:46:30;16.37;;;9.10;;
13204;SDS011;6667;52.634;9.226;2023-03-03T14:48:59;16.90;;;9.47;;
13204;SDS011;6667;52.634;9.226;2023-03-03T14:51:27;20.10;;;9.87;;
13204;SDS011;6667;52.634;9.226;2023-03-03T14:53:56;19.03;;;10.00;;
13204;SDS011;6667;52.634;9.226;2023-03-03T14:56:25;14.93;;;8.80;;
13204;SDS011;6667;52.634;9.226;2023-03-03T14:58:53;19.80;;;10.27;;
13204;SDS011;6667;52.634;9.226;2023-03-03T15:01:37;17.60;;;9.07;;
13204;SDS011;6667;52.634;9.226;2023-03-03T15:04:06;16.33;;;9.47;;
13204;SDS011;6667;52.634;9.226;2023-03-03T15:06:48;19.57;;;9.90;;
13204;SDS011;6667;52.634;9.226;2023-03-03T15:09:20;19.07;;;9.57;;
13204;SDS011;6667;52.634;9.226;2023-03-03T15:11:55;18.13;;;10.53;;
13204;SDS011;6667;52.634;9.226;2023-03-03T15:14:27;19.43;;;10.37;;